KPWC

Pine River Regional Airport

Pine River, Minnesota, USA
METAR KPWC 260355Z AUTO 00000KT 10SM SCT110 17/13 A2969 RMK AO2
Observed Flight Rules
May-26 @ 03:55 UTC (24 minutes ago) Visual Flight Rules
Visibility Clouds
10 miles
  • Scattered at 11,000' AGL
Temperatures Readings
Current 17°C / 63°F
Dewpoint 13°C / 55°F
Humidity 77%
Altimeter 29.69" Hg
Pressure 1005 hPa
Elevation 395
METAR KPWC 260355Z AUTO 00000KT 10SM SCT110 17/13 A2969 RMK AO2
Observed Flight Rules
May-26 @ 03:55 UTC
(24 minutes ago)
VFR
Clouds
  • Scattered at 11,000' AGL
Temperature Dewpoint
17°C / 63°F 13°C / 55°F
Humidity Altimeter Pressure
77% 29.69" Hg 1005 hPa